Sulphur, Oklahoma
Current Conditions -  °F | °C
As of 3:55 AM on Sunday 21 Dec 2014 (Local Time) from KADM Reporting Station
Haze Haze  
Wind Chill: 46°   Ceiling: 700
Heat Index: 46°   Visibility: 5mi
Dew Point: 45°   Wind: 3mph
Humidity: 97%   Direction: 140°SE
Pressure: 30.11"   Gusts: NA
Location:  34.51°N, 96.97°W
Report Text: KADM 210955Z AUTO 14003KT 5SM BR OVC007 08/07 A3011 RMK AO2 T00750070
Loading
Personal Weather Stations






























Interactive Weather Map New forecast layout! Learn more

10-Day Weather Forecast

Advertisements
Track Severe Weather on mobile